Terminal Aerodrome Forecast
Issued by NWS Tuscon, AZ

Home | Current Version | Previous Version | Text Only | Print | Product List | Glossary On
Versions: 1 2 3 4 5 6 7 8 9 10 11 12 13
353
FTUS45 KTWC 291736
TAFDUG
TAF
KDUG 291736Z 2918/3018 32011KT P6SM FEW070
     FM291900 28015G25KT P6SM SCT070
     FM300300 33009KT P6SM FEW070
     FM300800 VRB04KT P6SM SKC
     FM301600 17011KT P6SM SKC=

USA.gov is the U.S. government's official web portal to all federal, state and local government web resources and services.